Time;durP1;ratioP1;P1;durP2;ratioP2;P2;SDS_P1;SDS_P2;PMS_P1;PMS_P2;Temp;Humidity;BMP_temperature;BMP_pressure;BME280_temperature;BME280_humidity;BME280_pressure;Samples;Min_cycle;Max_cycle;Signal;HPM_P1;HPM_P2
2021/07/14 00:00:09;;;;;;;3.13;0.88;;;;;;;;;;6145974;28;20130;-80
2021/07/14 00:03:10;;;;;;;1.63;0.60;;;;;;;;;;6148248;28;20094;-80
2021/07/14 00:06:12;;;;;;;1.95;0.57;;;;;;;;;;6158945;28;20047;-80
2021/07/14 00:09:14;;;;;;;1.75;0.40;;;;;;;;;;6143794;28;20110;-80
2021/07/14 00:12:16;;;;;;;1.45;0.50;;;;;;;;;;6134566;28;20047;-80
2021/07/14 00:25:11;;;;;;;1.02;0.70;;;;;;;;;;6145339;28;20047;-80
2021/07/14 00:28:15;;;;;;;1.95;0.95;;;;;;;;;;6142002;29;20048;-80
2021/07/14 00:31:17;;;;;;;1.35;0.80;;;;;;;;;;6142443;28;20095;-80
2021/07/14 00:34:19;;;;;;;1.58;0.98;;;;;;;;;;6124909;29;20588;-80
2021/07/14 00:37:21;;;;;;;2.55;0.75;;;;;;;;;;6142581;29;20077;-80
2021/07/14 00:40:22;;;;;;;0.70;0.70;;;;;;;;;;6127637;28;20040;-81
2021/07/14 00:43:24;;;;;;;3.00;1.10;;;;;;;;;;6142226;29;20131;-80
2021/07/14 00:46:27;;;;;;;2.05;1.05;;;;;;;;;;6129324;28;20051;-80
2021/07/14 00:49:30;;;;;;;1.98;0.73;;;;;;;;;;6140856;29;20044;-80
2021/07/14 00:52:32;;;;;;;2.75;1.10;;;;;;;;;;6139347;29;20127;-80
2021/07/14 00:55:34;;;;;;;3.58;1.00;;;;;;;;;;6115201;29;20084;-81
2021/07/14 00:58:36;;;;;;;2.80;1.00;;;;;;;;;;6139326;28;20561;-81
2021/07/14 01:01:37;;;;;;;1.88;1.40;;;;;;;;;;6125227;28;20044;-81
2021/07/14 01:04:45;;;;;;;3.13;1.30;;;;;;;;;;6139775;29;20051;-80
2021/07/14 01:07:54;;;;;;;3.35;1.05;;;;;;;;;;6139436;29;20175;-81
2021/07/14 01:11:06;;;;;;;3.05;1.30;;;;;;;;;;6162596;28;20475;-81
2021/07/14 01:14:25;;;;;;;4.87;1.20;;;;;;;;;;6187959;28;20113;-80
2021/07/14 01:17:29;;;;;;;1.65;1.05;;;;;;;;;;6150485;28;20455;-81
2021/07/14 01:20:44;;;;;;;3.15;1.20;;;;;;;;;;6126318;28;20163;-81
2021/07/14 01:24:08;;;;;;;1.88;1.17;;;;;;;;;;6139484;28;20134;-81
2021/07/14 01:27:13;;;;;;;3.30;1.23;;;;;;;;;;6123913;29;20063;-81
2021/07/14 01:30:15;;;;;;;1.65;1.30;;;;;;;;;;6126846;28;20052;-81
2021/07/14 01:33:23;;;;;;;2.70;1.05;;;;;;;;;;6126543;28;20048;-81
2021/07/14 01:36:26;;;;;;;1.45;1.35;;;;;;;;;;6157854;28;20115;-81
2021/07/14 01:39:31;;;;;;;3.42;1.20;;;;;;;;;;6109443;28;20132;-81
2021/07/14 01:42:33;;;;;;;1.05;1.05;;;;;;;;;;6100713;29;20119;-81
2021/07/14 01:45:39;;;;;;;1.73;1.00;;;;;;;;;;6116484;29;20059;-81
2021/07/14 01:48:43;;;;;;;1.67;0.90;;;;;;;;;;6103184;29;20048;-81
2021/07/14 01:51:48;;;;;;;1.10;1.00;;;;;;;;;;6131876;28;20168;-81
2021/07/14 01:54:53;;;;;;;3.33;1.13;;;;;;;;;;6174976;28;20050;-81
2021/07/14 01:57:56;;;;;;;1.25;0.90;;;;;;;;;;6150383;28;20063;-81
2021/07/14 02:00:58;;;;;;;2.95;1.20;;;;;;;;;;6162486;28;20190;-81
2021/07/14 02:07:25;;;;;;;2.83;1.10;;;;;;;;;;6140494;29;20459;-81
2021/07/14 02:10:29;;;;;;;1.65;1.10;;;;;;;;;;6140730;28;20067;-81
2021/07/14 02:13:32;;;;;;;1.30;1.20;;;;;;;;;;6143602;28;20070;-80
2021/07/14 02:16:34;;;;;;;1.30;1.20;;;;;;;;;;6147438;28;20059;-80
2021/07/14 02:19:37;;;;;;;2.03;1.60;;;;;;;;;;6149076;28;20051;-80
2021/07/14 02:22:39;;;;;;;;;;;;;;;;;;6148427;28;20466;-79
2021/07/14 02:25:41;;;;;;;2.28;1.40;;;;;;;;;;6127734;28;19961;-79
2021/07/14 02:28:42;;;;;;;2.47;1.30;;;;;;;;;;6137378;28;20050;-79
2021/07/14 02:31:44;;;;;;;2.33;1.50;;;;;;;;;;6128131;28;20051;-79
2021/07/14 02:34:49;;;;;;;2.35;1.33;;;;;;;;;;6144640;28;20094;-79
2021/07/14 02:37:59;;;;;;;2.13;1.35;;;;;;;;;;6144456;28;20079;-78
2021/07/14 02:41:07;;;;;;;1.52;1.20;;;;;;;;;;6132641;28;20138;-79
2021/07/14 02:44:12;;;;;;;3.08;1.60;;;;;;;;;;6133424;28;20075;-79
2021/07/14 02:47:15;;;;;;;3.25;1.45;;;;;;;;;;6132712;28;20087;-77
2021/07/14 02:50:23;;;;;;;4.22;1.20;;;;;;;;;;6119409;29;20126;-77
2021/07/14 02:53:29;;;;;;;2.10;1.10;;;;;;;;;;6117381;29;20048;-77
2021/07/14 02:56:32;;;;;;;1.20;1.10;;;;;;;;;;6137294;28;20130;-77
2021/07/14 02:59:36;;;;;;;2.55;1.10;;;;;;;;;;6143188;28;20206;-78
2021/07/14 03:02:39;;;;;;;3.28;1.08;;;;;;;;;;6127813;28;20134;-78
2021/07/14 03:05:41;;;;;;;1.85;1.08;;;;;;;;;;6116344;29;20071;-77
2021/07/14 03:08:46;;;;;;;1.77;0.98;;;;;;;;;;6117138;29;20568;-77
2021/07/14 03:11:49;;;;;;;1.48;1.10;;;;;;;;;;6133667;28;20123;-78
2021/07/14 03:14:57;;;;;;;1.58;0.95;;;;;;;;;;6154436;28;20047;-77
2021/07/14 03:17:59;;;;;;;1.27;0.90;;;;;;;;;;6123689;28;20107;-78
2021/07/14 03:21:02;;;;;;;0.90;0.90;;;;;;;;;;6116340;29;20522;-77
2021/07/14 03:24:07;;;;;;;1.30;1.02;;;;;;;;;;6115278;28;20368;-78
2021/07/14 03:27:11;;;;;;;1.42;1.15;;;;;;;;;;6132658;28;20130;-78
2021/07/14 03:30:14;;;;;;;1.48;1.00;;;;;;;;;;6137030;28;20628;-77
2021/07/14 03:33:16;;;;;;;2.85;1.35;;;;;;;;;;6138727;28;20118;-77
2021/07/14 03:36:18;;;;;;;1.77;1.10;;;;;;;;;;6139363;28;20718;-78
2021/07/14 03:39:21;;;;;;;1.87;1.10;;;;;;;;;;6140022;28;20126;-77
2021/07/14 03:42:24;;;;;;;2.80;1.35;;;;;;;;;;6140713;28;20186;-78
2021/07/14 03:45:27;;;;;;;;;;;;;;;;;;6138427;28;20059;-78
2021/07/14 03:48:31;;;;;;;3.35;1.10;;;;;;;;;;6106018;28;20008;-78
2021/07/14 03:51:34;;;;;;;2.55;1.60;;;;;;;;;;6118289;28;20070;-77
2021/07/14 03:54:37;;;;;;;1.60;1.50;;;;;;;;;;6130223;28;20071;-78
2021/07/14 03:57:39;;;;;;;3.47;1.80;;;;;;;;;;6114657;29;20047;-77
2021/07/14 04:00:41;;;;;;;1.35;1.20;;;;;;;;;;6115798;29;20527;-77
2021/07/14 04:03:43;;;;;;;2.35;1.30;;;;;;;;;;6152275;28;20095;-77
2021/07/14 04:06:50;;;;;;;3.20;2.20;;;;;;;;;;6120792;28;20040;-78
2021/07/14 04:09:53;;;;;;;3.25;1.27;;;;;;;;;;6139401;28;20051;-77
2021/07/14 04:12:56;;;;;;;2.10;1.30;;;;;;;;;;6118436;28;20126;-77
2021/07/14 04:15:57;;;;;;;2.97;1.33;;;;;;;;;;6113415;28;20130;-78
2021/07/14 04:19:00;;;;;;;1.63;1.50;;;;;;;;;;6114484;29;20130;-77
2021/07/14 04:22:04;;;;;;;2.15;1.20;;;;;;;;;;6129678;28;20556;-77
2021/07/14 04:25:07;;;;;;;2.08;1.20;;;;;;;;;;6114993;29;20051;-77
2021/07/14 04:28:09;;;;;;;2.03;1.27;;;;;;;;;;6114426;29;20151;-77
2021/07/14 04:31:11;;;;;;;1.67;1.20;;;;;;;;;;6115780;28;20509;-77
2021/07/14 04:34:13;;;;;;;2.15;1.20;;;;;;;;;;6113864;29;20047;-77
2021/07/14 04:37:14;;;;;;;3.67;1.40;;;;;;;;;;6116015;29;20202;-77
2021/07/14 04:40:17;;;;;;;1.52;1.40;;;;;;;;;;6114457;29;20122;-78
2021/07/14 04:43:19;;;;;;;3.03;1.40;;;;;;;;;;6134119;28;20129;-77
2021/07/14 04:46:20;;;;;;;2.55;1.15;;;;;;;;;;6134123;28;20044;-77
2021/07/14 04:49:22;;;;;;;5.10;1.20;;;;;;;;;;6130052;29;20054;-78
2021/07/14 04:52:24;;;;;;;4.13;1.50;;;;;;;;;;6113210;29;20147;-77
2021/07/14 04:55:25;;;;;;;2.60;1.50;;;;;;;;;;6132645;28;20051;-77
2021/07/14 04:58:27;;;;;;;1.80;1.00;;;;;;;;;;6114041;29;20110;-77
2021/07/14 05:01:30;;;;;;;1.70;1.30;;;;;;;;;;6134081;28;20103;-78
2021/07/14 05:04:33;;;;;;;2.28;1.30;;;;;;;;;;6113815;29;20183;-77
2021/07/14 05:07:35;;;;;;;2.22;1.55;;;;;;;;;;6115717;29;20075;-77
2021/07/14 05:10:39;;;;;;;1.50;1.40;;;;;;;;;;6115874;29;20078;-77
2021/07/14 05:13:41;;;;;;;2.45;1.55;;;;;;;;;;6122511;28;20122;-77
2021/07/14 05:16:43;;;;;;;2.28;1.30;;;;;;;;;;6131201;29;20425;-77
2021/07/14 05:19:45;;;;;;;2.05;1.77;;;;;;;;;;6117627;29;20569;-77
2021/07/14 05:22:47;;;;;;;1.73;1.50;;;;;;;;;;6117675;29;20106;-77
2021/07/14 05:25:48;;;;;;;4.07;1.80;;;;;;;;;;6127992;28;20138;-77
2021/07/14 05:28:50;;;;;;;2.00;1.70;;;;;;;;;;6143459;28;20067;-78
2021/07/14 05:31:52;;;;;;;2.47;1.48;;;;;;;;;;6134034;28;20071;-78
2021/07/14 05:34:53;;;;;;;2.15;1.60;;;;;;;;;;6117469;29;20043;-78
2021/07/14 05:37:55;;;;;;;2.38;1.90;;;;;;;;;;6118659;29;20050;-78
2021/07/14 05:40:58;;;;;;;4.82;2.45;;;;;;;;;;6133853;28;20047;-78
2021/07/14 05:43:59;;;;;;;3.28;2.40;;;;;;;;;;6145626;28;20071;-78
2021/07/14 05:47:01;;;;;;;4.25;2.40;;;;;;;;;;6147965;28;20529;-78
2021/07/14 05:50:04;;;;;;;3.22;2.17;;;;;;;;;;6100572;29;20514;-77
2021/07/14 05:53:07;;;;;;;5.38;2.88;;;;;;;;;;6118618;29;20059;-77
2021/07/14 05:56:08;;;;;;;4.43;2.90;;;;;;;;;;6119534;28;20134;-77
2021/07/14 05:59:10;;;;;;;5.68;3.33;;;;;;;;;;6119093;29;20043;-77
2021/07/14 06:02:12;;;;;;;6.57;3.33;;;;;;;;;;6118762;28;20119;-77
2021/07/14 06:05:13;;;;;;;7.22;3.78;;;;;;;;;;6117931;29;20513;-78
2021/07/14 06:08:15;;;;;;;4.93;3.60;;;;;;;;;;6118578;29;20497;-78
2021/07/14 06:11:17;;;;;;;5.18;3.58;;;;;;;;;;6115419;28;20051;-77
2021/07/14 06:14:18;;;;;;;6.97;3.40;;;;;;;;;;6130210;29;20115;-77
2021/07/14 06:17:20;;;;;;;4.25;2.90;;;;;;;;;;6131124;28;20207;-77
2021/07/14 06:20:23;;;;;;;5.80;3.03;;;;;;;;;;6116187;29;20094;-77
2021/07/14 06:23:25;;;;;;;3.88;2.65;;;;;;;;;;6116230;29;20195;-77
2021/07/14 06:26:27;;;;;;;5.15;2.25;;;;;;;;;;6116626;28;20047;-77
2021/07/14 06:29:28;;;;;;;1.95;1.77;;;;;;;;;;6116559;29;20048;-78
2021/07/14 06:32:30;;;;;;;2.10;1.90;;;;;;;;;;6118543;28;20716;-78
2021/07/14 06:35:32;;;;;;;2.00;1.67;;;;;;;;;;6117190;29;20138;-77
2021/07/14 06:38:35;;;;;;;2.05;1.60;;;;;;;;;;6132790;29;20058;-77
2021/07/14 06:41:36;;;;;;;;;;;;;;;;;;6118129;29;20461;-78
2021/07/14 06:44:38;;;;;;;2.13;1.70;;;;;;;;;;6135224;28;20358;-78
2021/07/14 06:47:41;;;;;;;3.22;1.73;;;;;;;;;;6126035;29;20179;-77
2021/07/14 06:50:42;;;;;;;2.28;1.70;;;;;;;;;;6117239;29;20055;-77
2021/07/14 06:53:44;;;;;;;2.13;1.85;;;;;;;;;;6117565;29;20131;-78
2021/07/14 06:56:46;;;;;;;1.90;1.70;;;;;;;;;;6117108;28;20048;-78
2021/07/14 06:59:47;;;;;;;2.63;1.70;;;;;;;;;;6117189;29;20126;-77
2021/07/14 07:02:49;;;;;;;2.20;1.60;;;;;;;;;;6116358;28;20176;-77
2021/07/14 07:05:51;;;;;;;4.68;1.80;;;;;;;;;;6128303;28;20050;-77
2021/07/14 07:08:52;;;;;;;1.80;1.50;;;;;;;;;;6140616;28;20126;-78
2021/07/14 07:11:54;;;;;;;2.65;1.92;;;;;;;;;;6141229;28;20446;-78
2021/07/14 07:14:55;;;;;;;3.15;2.00;;;;;;;;;;6136065;28;20087;-78
2021/07/14 07:17:57;;;;;;;4.28;1.90;;;;;;;;;;6135729;28;20129;-78
2021/07/14 07:20:59;;;;;;;2.97;2.33;;;;;;;;;;6140269;28;20194;-78
2021/07/14 07:24:01;;;;;;;2.42;2.20;;;;;;;;;;6138660;28;20121;-78
2021/07/14 07:27:04;;;;;;;3.72;2.30;;;;;;;;;;6135653;28;20142;-78
2021/07/14 07:30:08;;;;;;;3.30;2.63;;;;;;;;;;6139838;28;20183;-78
2021/07/14 07:33:09;;;;;;;4.53;2.85;;;;;;;;;;6137050;28;20552;-78
2021/07/14 07:36:11;;;;;;;5.43;2.90;;;;;;;;;;6155681;28;20460;-78
2021/07/14 07:39:16;;;;;;;3.85;3.05;;;;;;;;;;6141173;28;20186;-78
2021/07/14 07:42:18;;;;;;;3.58;2.60;;;;;;;;;;6134896;28;20162;-78
2021/07/14 07:45:19;;;;;;;3.75;2.60;;;;;;;;;;6141195;28;20044;-78
2021/07/14 07:48:22;;;;;;;4.10;2.97;;;;;;;;;;6137164;28;20062;-78
2021/07/14 07:51:23;;;;;;;3.30;3.00;;;;;;;;;;6139372;28;20087;-78
2021/07/14 07:54:25;;;;;;;6.15;3.00;;;;;;;;;;6137194;28;20130;-78
2021/07/14 07:57:28;;;;;;;3.75;2.72;;;;;;;;;;6137008;28;20051;-77
2021/07/14 08:00:30;;;;;;;;;;;;;;;;;;6140972;28;20094;-78
2021/07/14 08:03:31;;;;;;;4.35;2.13;;;;;;;;;;6145861;28;19931;-78
2021/07/14 08:06:33;;;;;;;3.40;2.40;;;;;;;;;;6116941;28;20047;-78
2021/07/14 08:09:37;;;;;;;4.43;2.38;;;;;;;;;;6118764;28;20553;-78
2021/07/14 08:12:39;;;;;;;3.60;2.38;;;;;;;;;;6091686;29;20072;-78
2021/07/14 08:15:41;;;;;;;4.53;2.42;;;;;;;;;;6111329;29;20099;-78
2021/07/14 08:18:43;;;;;;;2.80;2.25;;;;;;;;;;6112788;28;20051;-78
2021/07/14 08:21:47;;;;;;;2.30;2.10;;;;;;;;;;6112013;29;20156;-78
2021/07/14 08:24:49;;;;;;;3.72;2.00;;;;;;;;;;6113694;29;20138;-77
2021/07/14 08:27:51;;;;;;;3.17;2.10;;;;;;;;;;6103036;29;20050;-77
2021/07/14 08:30:52;;;;;;;2.65;2.05;;;;;;;;;;6090324;29;20131;-77
2021/07/14 08:33:56;;;;;;;2.58;2.00;;;;;;;;;;6116147;29;20537;-77
2021/07/14 08:37:00;;;;;;;2.40;2.10;;;;;;;;;;6120520;29;20044;-78
2021/07/14 08:40:05;;;;;;;3.80;2.05;;;;;;;;;;6134398;29;20051;-77
2021/07/14 08:43:09;;;;;;;3.10;2.25;;;;;;;;;;6115033;29;20083;-77
2021/07/14 08:46:11;;;;;;;3.63;2.30;;;;;;;;;;6101377;29;20052;-77
2021/07/14 08:49:14;;;;;;;3.13;2.45;;;;;;;;;;6078338;29;20047;-78
2021/07/14 08:52:17;;;;;;;3.10;2.20;;;;;;;;;;6111780;29;20081;-78
2021/07/14 08:55:20;;;;;;;2.85;2.20;;;;;;;;;;6078327;29;20072;-78
2021/07/14 08:58:23;;;;;;;3.05;2.30;;;;;;;;;;6110754;29;20551;-78
2021/07/14 09:01:25;;;;;;;4.22;2.22;;;;;;;;;;6096765;29;20546;-78
2021/07/14 09:04:27;;;;;;;3.90;2.60;;;;;;;;;;6117655;29;20065;-77
2021/07/14 09:07:29;;;;;;;4.80;2.92;;;;;;;;;;6120154;29;20126;-78
2021/07/14 09:10:30;;;;;;;3.05;2.35;;;;;;;;;;6120134;28;20044;-77
2021/07/14 09:13:42;;;;;;;4.45;2.45;;;;;;;;;;6119555;29;20532;-78
2021/07/14 09:16:44;;;;;;;3.75;2.30;;;;;;;;;;6119700;28;20071;-78
2021/07/14 09:19:46;;;;;;;2.90;2.08;;;;;;;;;;6121025;29;20051;-78
2021/07/14 09:23:01;;;;;;;2.22;1.80;;;;;;;;;;6119220;29;20516;-78
2021/07/14 09:26:04;;;;;;;2.15;1.95;;;;;;;;;;6120300;29;20110;-78
2021/07/14 09:29:06;;;;;;;2.25;1.50;;;;;;;;;;6120851;29;20126;-78
2021/07/14 09:32:08;;;;;;;2.08;1.40;;;;;;;;;;6121322;29;20103;-77
2021/07/14 09:35:10;;;;;;;1.70;1.60;;;;;;;;;;6133898;28;20047;-78
2021/07/14 09:38:20;;;;;;;2.55;2.08;;;;;;;;;;6119954;29;20127;-78
2021/07/14 09:41:21;;;;;;;2.08;1.88;;;;;;;;;;6140507;28;20521;-77
2021/07/14 09:44:23;;;;;;;2.80;2.13;;;;;;;;;;6142080;28;20083;-77
2021/07/14 09:47:27;;;;;;;2.08;1.83;;;;;;;;;;6122907;28;20118;-78
2021/07/14 09:50:35;;;;;;;3.03;2.47;;;;;;;;;;6140577;28;20055;-78
2021/07/14 09:53:42;;;;;;;4.20;3.00;;;;;;;;;;6137777;28;20043;-77
2021/07/14 09:56:44;;;;;;;2.75;2.22;;;;;;;;;;6156201;28;20091;-78
2021/07/14 09:59:47;;;;;;;3.38;2.80;;;;;;;;;;6142811;28;20043;-78
2021/07/14 10:02:55;;;;;;;4.03;2.67;;;;;;;;;;6140559;28;20142;-78
2021/07/14 10:06:01;;;;;;;3.33;2.85;;;;;;;;;;6143885;28;20043;-78
2021/07/14 10:09:03;;;;;;;3.00;2.70;;;;;;;;;;6143357;28;20126;-78
2021/07/14 10:12:25;;;;;;;5.13;3.35;;;;;;;;;;6137581;28;20054;-78
2021/07/14 10:15:27;;;;;;;3.55;2.90;;;;;;;;;;6119287;29;20051;-78
2021/07/14 10:18:29;;;;;;;4.82;2.95;;;;;;;;;;6133754;28;20130;-79
2021/07/14 10:21:33;;;;;;;4.97;2.73;;;;;;;;;;6133924;29;20103;-78
2021/07/14 10:24:35;;;;;;;3.50;2.70;;;;;;;;;;6119154;29;20068;-79
2021/07/14 10:27:36;;;;;;;2.97;2.50;;;;;;;;;;6119983;29;20051;-78
2021/07/14 10:30:41;;;;;;;1.80;1.70;;;;;;;;;;6119885;29;20517;-78
2021/07/14 10:33:43;;;;;;;1.95;1.75;;;;;;;;;;6117059;29;20119;-78
2021/07/14 10:36:51;;;;;;;2.20;1.60;;;;;;;;;;6123781;29;20079;-80
2021/07/14 10:39:55;;;;;;;1.60;1.35;;;;;;;;;;6130342;28;20044;-80
2021/07/14 10:42:57;;;;;;;3.65;1.88;;;;;;;;;;6128017;28;20126;-82
2021/07/14 10:45:59;;;;;;;2.00;1.20;;;;;;;;;;6161814;28;20054;-81
2021/07/14 10:49:04;;;;;;;1.90;1.25;;;;;;;;;;6132531;29;20055;-81
2021/07/14 10:52:07;;;;;;;2.25;1.35;;;;;;;;;;6117342;29;20132;-79
2021/07/14 10:55:12;;;;;;;1.45;1.35;;;;;;;;;;6128060;28;20055;-80
2021/07/14 10:58:18;;;;;;;2.63;1.75;;;;;;;;;;6138823;28;20050;-79
2021/07/14 11:01:39;;;;;;;2.42;1.90;;;;;;;;;;6137276;28;20040;-81
2021/07/14 11:04:44;;;;;;;2.75;1.85;;;;;;;;;;6119076;29;20052;-80
2021/07/14 11:07:46;;;;;;;2.17;1.60;;;;;;;;;;6118866;29;20131;-78
2021/07/14 11:10:58;;;;;;;1.67;1.58;;;;;;;;;;6117199;28;20657;-81
2021/07/14 11:14:11;;;;;;;1.63;1.50;;;;;;;;;;6141356;28;20126;-80
2021/07/14 11:17:13;;;;;;;2.55;1.58;;;;;;;;;;6142273;28;20047;-81
2021/07/14 11:20:15;;;;;;;2.30;1.58;;;;;;;;;;6142982;28;20051;-81
2021/07/14 11:23:25;;;;;;;1.50;1.40;;;;;;;;;;6141962;28;20051;-82
2021/07/14 11:26:26;;;;;;;1.70;1.45;;;;;;;;;;6143963;28;20532;-80
2021/07/14 11:29:40;;;;;;;3.75;1.70;;;;;;;;;;6143594;28;20090;-80
2021/07/14 11:33:02;;;;;;;2.03;1.83;;;;;;;;;;6126708;28;20102;-80
2021/07/14 11:36:11;;;;;;;2.47;2.20;;;;;;;;;;6119834;29;20059;-80
2021/07/14 11:39:26;;;;;;;4.43;2.70;;;;;;;;;;6120094;29;20123;-80
2021/07/14 11:42:47;;;;;;;4.60;3.50;;;;;;;;;;6139631;28;20117;-81
2021/07/14 11:46:02;;;;;;;3.30;3.00;;;;;;;;;;6141532;28;20054;-82
2021/07/14 11:49:07;;;;;;;4.00;3.15;;;;;;;;;;6119630;29;20083;-78
2021/07/14 11:52:42;;;;;;;4.50;3.22;;;;;;;;;;6118239;29;20122;-80
2021/07/14 11:55:44;;;;;;;4.07;3.30;;;;;;;;;;6118490;29;20063;-81
2021/07/14 11:59:01;;;;;;;5.45;3.50;;;;;;;;;;6119400;29;20127;-80
2021/07/14 12:02:05;;;;;;;5.00;3.22;;;;;;;;;;6129734;28;20067;-80
2021/07/14 12:05:09;;;;;;;5.05;3.95;;;;;;;;;;6142455;28;20040;-80
2021/07/14 12:08:13;;;;;;;4.88;3.67;;;;;;;;;;6143270;28;20460;-81
2021/07/14 12:11:19;;;;;;;4.85;3.30;;;;;;;;;;6148464;28;20141;-80
2021/07/14 12:14:24;;;;;;;5.97;3.53;;;;;;;;;;6146777;28;20043;-78
2021/07/14 12:17:27;;;;;;;4.63;3.42;;;;;;;;;;6144428;28;20130;-77
2021/07/14 12:20:29;;;;;;;;;;;;;;;;;;6147543;28;20054;-78
2021/07/14 12:23:34;;;;;;;4.80;3.47;;;;;;;;;;6144309;28;19954;-77
2021/07/14 12:26:56;;;;;;;5.20;3.95;;;;;;;;;;6121018;29;20135;-78
2021/07/14 12:30:09;;;;;;;5.22;3.70;;;;;;;;;;6124205;29;20059;-78
2021/07/14 12:33:12;;;;;;;5.72;3.70;;;;;;;;;;6123443;28;20036;-77
2021/07/14 12:36:16;;;;;;;5.07;3.97;;;;;;;;;;6137061;28;20506;-78
2021/07/14 12:39:35;;;;;;;5.10;3.78;;;;;;;;;;6122666;29;20047;-78
2021/07/14 12:42:43;;;;;;;4.53;3.88;;;;;;;;;;6139056;28;20043;-78
2021/07/14 12:45:47;;;;;;;6.38;3.97;;;;;;;;;;6145375;28;20052;-78
2021/07/14 12:48:49;;;;;;;6.18;3.97;;;;;;;;;;6140881;28;20074;-78
2021/07/14 12:52:02;;;;;;;5.70;4.72;;;;;;;;;;6135864;28;20055;-78
2021/07/14 12:55:04;;;;;;;5.35;4.15;;;;;;;;;;6144204;28;20073;-78
2021/07/14 12:58:11;;;;;;;5.95;4.80;;;;;;;;;;6115923;28;20090;-78
2021/07/14 13:01:13;;;;;;;7.18;5.28;;;;;;;;;;6118048;29;20505;-77
2021/07/14 13:04:16;;;;;;;7.47;5.25;;;;;;;;;;6120839;28;20650;-78
2021/07/14 13:07:22;;;;;;;;;;;;;;;;;;6122911;28;20068;-78
2021/07/14 13:10:26;;;;;;;7.75;5.03;;;;;;;;;;6119338;28;19955;-78
2021/07/14 13:13:29;;;;;;;;;;;;;;;;;;6117142;28;20055;-79
2021/07/14 13:16:30;;;;;;;6.23;4.57;;;;;;;;;;6119615;29;19946;-78
2021/07/14 13:19:32;;;;;;;8.07;5.57;;;;;;;;;;6105919;28;20055;-78
2021/07/14 13:22:35;;;;;;;8.43;5.32;;;;;;;;;;6116764;28;20533;-78
2021/07/14 13:25:40;;;;;;;7.80;5.32;;;;;;;;;;6119196;28;20051;-78
2021/07/14 13:28:42;;;;;;;9.15;5.60;;;;;;;;;;6118314;29;20068;-78
2021/07/14 13:31:44;;;;;;;8.95;5.28;;;;;;;;;;6117802;29;20122;-78
2021/07/14 13:34:47;;;;;;;8.05;5.15;;;;;;;;;;6121615;29;20047;-77
2021/07/14 13:37:49;;;;;;;;;;;;;;;;;;6144295;28;20054;-78
2021/07/14 13:40:52;;;;;;;7.05;4.78;;;;;;;;;;6140944;28;19930;-78
2021/07/14 13:44:01;;;;;;;7.50;5.10;;;;;;;;;;6142540;28;20051;-78
2021/07/14 13:47:06;;;;;;;7.15;5.00;;;;;;;;;;6142992;28;20545;-77
2021/07/14 13:50:09;;;;;;;7.10;5.10;;;;;;;;;;6116474;28;20047;-78
2021/07/14 13:53:15;;;;;;;6.28;5.00;;;;;;;;;;6146782;28;20086;-78
2021/07/14 13:56:25;;;;;;;7.55;4.97;;;;;;;;;;6141172;28;20524;-78
2021/07/14 13:59:47;;;;;;;7.30;4.55;;;;;;;;;;6144054;28;20058;-78
2021/07/14 14:02:58;;;;;;;6.57;4.40;;;;;;;;;;6140525;28;20055;-78
2021/07/14 14:06:07;;;;;;;5.88;4.50;;;;;;;;;;6141823;28;20126;-78
2021/07/14 14:09:18;;;;;;;6.18;4.38;;;;;;;;;;6138768;28;20154;-78
2021/07/14 14:12:32;;;;;;;6.55;4.45;;;;;;;;;;6140612;28;20046;-78
2021/07/14 14:15:33;;;;;;;6.38;4.63;;;;;;;;;;6141172;28;20528;-78
2021/07/14 14:18:35;;;;;;;7.43;4.80;;;;;;;;;;6140648;28;20047;-78
2021/07/14 14:21:38;;;;;;;5.97;4.57;;;;;;;;;;6157422;28;20047;-77
2021/07/14 14:24:40;;;;;;;6.95;4.18;;;;;;;;;;6132308;28;20120;-77
2021/07/14 14:28:04;;;;;;;6.50;4.55;;;;;;;;;;6104111;29;20185;-78
2021/07/14 14:31:07;;;;;;;;;;;;;;;;;;6113456;29;20078;-78
2021/07/14 14:34:09;;;;;;;;;;;;;;;;;;6091689;29;19927;-78
2021/07/14 14:37:11;;;;;;;6.18;4.28;;;;;;;;;;6090689;29;20201;-78
2021/07/14 14:40:13;;;;;;;6.60;4.60;;;;;;;;;;6089919;29;20078;-78
2021/07/14 14:43:19;;;;;;;7.78;3.75;;;;;;;;;;6094940;29;20050;-78
2021/07/14 14:46:20;;;;;;;7.18;3.72;;;;;;;;;;6108913;29;20169;-78
2021/07/14 14:49:23;;;;;;;5.35;3.50;;;;;;;;;;6090797;29;20044;-79
2021/07/14 14:52:24;;;;;;;6.35;3.78;;;;;;;;;;6090435;29;20418;-79
2021/07/14 14:55:26;;;;;;;6.05;3.33;;;;;;;;;;6089238;29;20861;-78
2021/07/14 14:58:29;;;;;;;5.32;3.25;;;;;;;;;;6089209;29;20621;-78
2021/07/14 15:01:31;;;;;;;3.92;2.80;;;;;;;;;;6090425;29;20130;-77
2021/07/14 15:04:33;;;;;;;3.83;3.03;;;;;;;;;;6086825;29;20072;-77
2021/07/14 15:07:35;;;;;;;4.78;2.80;;;;;;;;;;6088198;29;20155;-78
2021/07/14 15:10:37;;;;;;;3.22;2.80;;;;;;;;;;6089859;29;20058;-78
2021/07/14 15:13:38;;;;;;;3.50;2.80;;;;;;;;;;6072290;29;20072;-78
2021/07/14 15:16:40;;;;;;;4.38;2.97;;;;;;;;;;6089957;29;20048;-78
2021/07/14 15:19:42;;;;;;;3.67;2.38;;;;;;;;;;6104042;29;20091;-78
2021/07/14 15:22:44;;;;;;;3.95;2.60;;;;;;;;;;6107748;29;20056;-78
2021/07/14 15:28:51;;;;;;;3.78;2.60;;;;;;;;;;6118346;28;20505;-78
2021/07/14 15:31:53;;;;;;;3.75;2.47;;;;;;;;;;6097588;29;20063;-78
2021/07/14 15:34:56;;;;;;;4.10;2.78;;;;;;;;;;6116563;29;20047;-78
2021/07/14 15:37:58;;;;;;;3.45;2.55;;;;;;;;;;6154301;28;20050;-78
2021/07/14 15:41:03;;;;;;;4.97;2.70;;;;;;;;;;6134837;28;20046;-78
2021/07/14 15:44:05;;;;;;;2.63;2.28;;;;;;;;;;6130481;28;20047;-78
2021/07/14 15:47:08;;;;;;;3.65;2.47;;;;;;;;;;6128970;29;20051;-78
2021/07/14 15:50:10;;;;;;;2.45;2.00;;;;;;;;;;6131698;28;20053;-77
2021/07/14 15:53:12;;;;;;;3.03;2.10;;;;;;;;;;6154567;28;20042;-78
2021/07/14 15:56:13;;;;;;;2.00;1.70;;;;;;;;;;6121463;28;20099;-78
2021/07/14 15:59:15;;;;;;;1.63;1.40;;;;;;;;;;6114749;29;20074;-78
2021/07/14 16:02:25;;;;;;;2.47;1.90;;;;;;;;;;6130673;28;20074;-77
2021/07/14 16:05:27;;;;;;;3.05;1.63;;;;;;;;;;6137010;28;20526;-78
2021/07/14 16:08:31;;;;;;;2.53;1.70;;;;;;;;;;6138232;28;20047;-78
2021/07/14 16:11:33;;;;;;;3.25;1.80;;;;;;;;;;6133139;28;20692;-78
2021/07/14 16:14:35;;;;;;;2.38;1.70;;;;;;;;;;6113929;29;20059;-78
2021/07/14 16:17:38;;;;;;;1.63;1.40;;;;;;;;;;6115288;28;20768;-78
2021/07/14 16:20:39;;;;;;;1.45;1.30;;;;;;;;;;6116412;29;20067;-78
2021/07/14 16:23:41;;;;;;;2.42;1.40;;;;;;;;;;6116386;29;20051;-78
2021/07/14 16:26:43;;;;;;;1.65;1.48;;;;;;;;;;6134769;28;20047;-78
2021/07/14 16:29:47;;;;;;;1.42;1.30;;;;;;;;;;6141203;28;20144;-78
2021/07/14 16:32:49;;;;;;;1.20;1.10;;;;;;;;;;6140583;28;20067;-78
2021/07/14 16:35:51;;;;;;;1.10;1.00;;;;;;;;;;6117902;29;20083;-78
2021/07/14 16:38:55;;;;;;;1.23;1.08;;;;;;;;;;6118390;29;20047;-78
2021/07/14 16:41:56;;;;;;;1.52;1.38;;;;;;;;;;6120644;29;20044;-78
2021/07/14 16:44:58;;;;;;;1.98;1.20;;;;;;;;;;6140165;28;20103;-78
2021/07/14 16:48:02;;;;;;;2.65;1.30;;;;;;;;;;6140323;28;20058;-78
2021/07/14 16:51:04;;;;;;;1.50;1.40;;;;;;;;;;6139520;28;20063;-78
2021/07/14 16:54:07;;;;;;;1.83;1.33;;;;;;;;;;6133804;28;20051;-78
2021/07/14 16:57:08;;;;;;;2.03;1.30;;;;;;;;;;6151966;28;20900;-78
2021/07/14 17:00:13;;;;;;;3.15;1.33;;;;;;;;;;6155630;28;20063;-78
2021/07/14 17:03:15;;;;;;;1.95;1.48;;;;;;;;;;6122541;28;20055;-78
2021/07/14 17:06:17;;;;;;;1.40;1.27;;;;;;;;;;6117034;29;20048;-78
2021/07/14 17:09:18;;;;;;;2.55;1.48;;;;;;;;;;6120991;29;20048;-78
2021/07/14 17:12:20;;;;;;;1.60;1.50;;;;;;;;;;6127853;28;20062;-78
2021/07/14 17:15:23;;;;;;;1.38;1.20;;;;;;;;;;6140907;28;20311;-78
2021/07/14 17:18:24;;;;;;;2.50;1.60;;;;;;;;;;6121607;28;20044;-79
2021/07/14 17:21:26;;;;;;;1.25;1.15;;;;;;;;;;6119540;28;20463;-77
2021/07/14 17:24:28;;;;;;;1.50;1.40;;;;;;;;;;6153716;28;20142;-77
2021/07/14 17:27:30;;;;;;;2.07;1.30;;;;;;;;;;6128359;28;20044;-77
2021/07/14 17:30:32;;;;;;;1.30;1.13;;;;;;;;;;6109326;29;20084;-77
2021/07/14 17:33:34;;;;;;;2.20;1.60;;;;;;;;;;6137002;28;20059;-77
2021/07/14 17:36:36;;;;;;;1.58;1.48;;;;;;;;;;6154118;28;20106;-77
2021/07/14 17:39:38;;;;;;;3.78;1.52;;;;;;;;;;6134443;28;20051;-77
2021/07/14 17:42:40;;;;;;;1.70;1.60;;;;;;;;;;6139625;28;20501;-78
2021/07/14 17:45:41;;;;;;;1.42;1.33;;;;;;;;;;6140022;28;20138;-78
2021/07/14 17:48:43;;;;;;;1.60;1.48;;;;;;;;;;6138405;28;20047;-78
2021/07/14 17:51:45;;;;;;;3.05;1.70;;;;;;;;;;6141386;28;20055;-78
2021/07/14 17:54:53;;;;;;;1.83;1.70;;;;;;;;;;6151781;28;20138;-78
2021/07/14 17:57:54;;;;;;;1.70;1.60;;;;;;;;;;6121141;28;20055;-78
2021/07/14 18:00:56;;;;;;;2.20;1.73;;;;;;;;;;6137487;28;20055;-78
2021/07/14 18:03:58;;;;;;;1.60;1.50;;;;;;;;;;6107300;29;20127;-78
2021/07/14 18:07:02;;;;;;;;;;;;;;;;;;6115171;29;20048;-78
2021/07/14 18:10:11;;;;;;;2.08;1.88;;;;;;;;;;6125476;28;19926;-77
2021/07/14 18:13:13;;;;;;;1.90;1.80;;;;;;;;;;6112805;29;20063;-78
2021/07/14 18:16:15;;;;;;;2.10;1.90;;;;;;;;;;6116179;29;20528;-78
2021/07/14 18:19:17;;;;;;;1.60;1.50;;;;;;;;;;6118879;29;20044;-78
2021/07/14 18:22:18;;;;;;;4.55;2.00;;;;;;;;;;6094572;29;20044;-77
2021/07/14 18:25:21;;;;;;;1.75;1.65;;;;;;;;;;6097439;29;20043;-78
2021/07/14 18:28:23;;;;;;;4.00;1.70;;;;;;;;;;6121174;29;20080;-77
2021/07/14 18:31:25;;;;;;;4.50;1.60;;;;;;;;;;6104584;29;20055;-78
2021/07/14 18:34:27;;;;;;;1.67;1.55;;;;;;;;;;6094524;29;20048;-77
2021/07/14 18:37:29;;;;;;;1.73;1.63;;;;;;;;;;6095365;29;20104;-78
2021/07/14 18:40:33;;;;;;;1.50;1.33;;;;;;;;;;6096312;29;20441;-78